x

Cape Cod - 24 Nm East Of Provincetown, Ma (44018) Wave Buoy

11:50am - Wed 6th May 2015 All times are EDT. -4 hours from GMT.

  • Sig Wave height 2.0ft
  • Swell Direction
  • Peak Period 7s
  • Average Period 5s
  • Wind
    2mph
  • Sea Temp 50°f
  • Air Temp 53°f
  • Sea Pressure 1026.2mb
  • Cape Cod - 24 Nm East Of Provincetown, Ma
  • Cape Cod - 24 Nm East Of Provincetown, Ma

More Historic Weather Station data

Upgrade to MSW Pro to gain access to the past 30 days of data for over 8000 Wavebouys and Weather Stations around the globe.

Join Pro

Comparision Forecast

View Surf forecast
   
Wed 05/06 11:50am 2ft 7s 5s 2
mph
1026.2mb 50f 53f
10:50am 2ft 11s 6s 2
mph
1026.6mb 47f 51f
9:50am 2ft 10s 6s  -  2 mph 1026.6mb 46f 50f
8:50am 2ft 5s 6s 7
mph
1026.3mb 45f 49f
7:50am 2.5ft 8s 6s 4 7 mph 1026.1mb 45f 49f
6:50am 2.5ft 5s 6s 9
mph
1025.4mb 45f 50f
5:50am 2.5ft 10s 6s 7 9 mph 1024.4mb 45f 49f
4:50am 2.5ft 8s 6s 9
mph
1024mb 45f 48f
3:50am 2ft 10s 7s 7
mph
1023.8mb 45f 48f
2:50am 2.5ft 11s 6s 11
mph
1023.8mb 45f 47f
1:50am 2ft 8s 6s 2
mph
1023.7mb 45f 48f
12:50am 2.5ft 8s 6s 9
mph
1023.7mb 45f 49f
Tue 05/05 11:50pm 2ft 9s 6s 9 11 mph 1023.5mb 45f 49f
10:50pm 2.5ft 5s 5s 11
mph
1023.5mb 46f 49f
9:50pm 2ft 11s 5s 9 11 mph 1023.6mb 46f 49f
8:50pm 2.5ft 6s 6s 7 9 mph 1023.3mb 46f 49f
7:50pm 2.5ft 6s 5s 4 7 mph 1022.6mb 46f 50f
6:50pm 2.5ft 6s 6s 4 7 mph 1022.1mb 46f 50f
5:50pm 2.5ft 6s 6s 4
mph
1022.2mb 47f 50f
4:50pm 2.5ft 7s 6s 4 7 mph 1022.4mb 47f 50f
3:50pm 2.5ft 6s 6s 4 7 mph 1022.5mb 46f 49f
2:50pm 2.5ft 11s 6s 7 9 mph 1022.9mb 46f 56f
1:50pm 2.5ft 6s 6s 9
mph
1023.3mb 45f 53f
12:50pm 2.5ft 11s 5s 9 11 mph 1023.1mb 45f 52f
11:50am 3ft 5s 5s 9 11 mph 1023mb 45f 50f
10:50am 3ft 10s 5s 9 11 mph 1022.8mb 45f 49f
9:50am 3ft 5s 5s 11
mph
1022.5mb 45f 50f
8:50am 3.5ft 5s 5s 13 16 mph 1021.9mb 45f 50f
7:50am 3.5ft 5s 5s 16 18 mph 1021.2mb 45f 52f
6:50am 3.5ft 11s 4s 16 18 mph 1020.6mb 45f 52f
5:50am 4ft 5s 5s 16 18 mph 1019.8mb 45f 52f
4:50am 4.5ft 4s 5s 20 25 mph 1019.4mb 45f 53f
3:50am 4.5ft 5s 5s 20 22 mph 1019.6mb 45f 53f
2:50am 4.5ft 4s 5s 18 22 mph 1019.5mb 45f 53f
1:50am 3.5ft 4s 5s 16 18 mph 1019.6mb 45f 51f
12:50am 3.5ft 4s 5s 16 18 mph 1020mb 45f 51f
Mon 05/04 11:50pm 3.5ft 11s 5s 18 20 mph 1020.2mb 44f 51f
10:50pm 3ft 10s 5s 16
mph
1020.6mb 44f 51f
9:50pm 3.5ft 11s 5s 13 16 mph 1021.2mb 44f 49f
8:50pm 3.5ft 5s 4s 13 16 mph 1021.2mb 44f 49f
7:50pm 3.5ft 5s 5s 18 20 mph 1020.7mb 45f 50f
6:50pm 4ft 8s 5s 18 20 mph 1020.5mb 45f 50f
5:50pm 3.5ft 8s 5s 18 20 mph 1020.7mb 45f 51f
4:50pm 3.5ft 10s 5s 20 22 mph 1020.9mb 45f 51f
3:50pm 3.5ft 8s 5s 18 20 mph 1021.2mb 45f 51f
2:50pm 4ft 8s 5s 18 22 mph 1021.6mb 45f 51f
1:50pm 4.5ft 8s 5s 18 22 mph 1021.9mb 45f 51f
12:50pm 3.5ft 8s 5s 18 20 mph 1022.4mb 45f 51f
11:50am 3.5ft 8s 5s 16 18 mph 1023mb 45f 50f
10:50am 3.5ft 8s 5s 13 16 mph 1023.2mb 44f 48f
9:50am 3ft 9s 5s 13 16 mph 1023.3mb 44f 48f
8:50am 3ft 9s 5s 13
mph
1023.4mb 44f 47f
7:50am 3ft 9s 5s 13 16 mph 1023.4mb 44f 47f
6:50am 3ft 10s 5s 13 16 mph 1023.1mb 44f 47f
5:50am 3.5ft 8s 5s 13 16 mph 1022.7mb 44f 48f
4:50am 3.5ft 7s 6s 13 16 mph 1022.4mb 44f 48f
3:50am 3.5ft 9s 6s 11
mph
1022.4mb 44f 47f
2:50am 3.5ft 8s 6s 9 11 mph 1022.2mb 44f 47f
1:50am 3.5ft 8s 6s 11
mph
1022mb 44f 47f
12:50am 4ft 8s 6s 11 13 mph 1021.8mb 44f 47f
Sun 05/03 11:50pm 3.5ft 8s 6s 9 11 mph 1021.5mb 44f 46f
10:50pm 3.5ft 8s 5s 11
mph
1021.5mb 44f 46f
9:50pm 3.5ft 9s  -  11 13 mph 1021.5mb 44f 46f
8:50pm 3.5ft 8s 5s 16
mph
1021.1mb 44f 47f
7:50pm 3.5ft 8s 5s 18 20 mph 1020.4mb 44f 47f
6:50pm 4ft 9s 5s 18 20 mph 1020.1mb 44f 47f
5:50pm 4ft 9s 5s 18 20 mph 1019.7mb 44f 47f
4:50pm 4ft 10s 5s 18 22 mph 1019.7mb 44f 46f
3:50pm 4ft 9s 5s 18 20 mph 1019.7mb 44f 46f
2:50pm 4ft 9s 5s 18 22 mph 1019.9mb 44f 46f
1:50pm 4ft 7s 6s 18 20 mph 1019.7mb 45f 46f
12:50pm 4ft 7s 6s 16 18 mph 1019.9mb 44f 46f
11:50am 4ft 11s 6s 16 20 mph 1019.9mb 44f 45f
10:50am 3.5ft 8s 6s 13 16 mph 1019.9mb 44f 45f
9:50am 3.5ft 8s 6s 13
mph
1019.6mb 44f 44f
8:50am 3.5ft 8s 6s 11 13 mph 1019.6mb 44f 44f
7:50am 3.5ft 8s 6s 13 16 mph 1018.8mb 44f 44f
6:50am 3.5ft 8s 6s 11
mph
1018.5mb 44f 43f
5:50am 3.5ft 8s 7s 9 11 mph 1018mb 44f 42f
4:50am 3.5ft 8s 7s 9 11 mph 1017.7mb 44f 43f
3:50am 3.5ft 8s 7s 7 9 mph 1017.6mb 44f 43f
2:50am 3.5ft 12s 7s 7 9 mph 1017.5mb 44f 43f
1:50am 3.5ft 7s 7s 7 9 mph 1017.5mb 44f 42f
12:50am 3.5ft 8s 7s 4 9 mph 1017.5mb 44f 42f
Sat 05/02 11:50pm 3.5ft 7s 7s 7 9 mph 1017.1mb 44f 42f
10:50pm 3.5ft 8s 7s 7
mph
1017mb 44f 42f
9:50pm 4ft 8s 7s 7
mph
1016.9mb 44f 41f
8:50pm 3.5ft 8s 6s 4 7 mph 1016.8mb 44f 39f
7:50pm 3.5ft 8s 7s 13 16 mph 1016.2mb 44f 39f
6:50pm 3.5ft 7s 6s 9 11 mph 1016.1mb 45f 40f
5:50pm 3.5ft 9s 6s 4 9 mph 1016mb 45f 40f
4:50pm 3.5ft 8s 6s 2 4 mph 1016.1mb 45f 40f